Time;durP1;ratioP1;P1;durP2;ratioP2;P2;SDS_P1;SDS_P2;PMS_P1;PMS_P2;Temp;Humidity;BMP_temperature;BMP_pressure;BME280_temperature;BME280_humidity;BME280_pressure;Samples;Min_cycle;Max_cycle;Signal;HPM_P1;HPM_P2
2022/06/22 00:00:34;;;;;;;4.70;4.50;;;;;;;14.09;81.81;100800.22;5973735;23;20027;-73
2022/06/22 00:03:01;;;;;;;5.90;5.60;;;;;;;13.91;81.99;100776.72;6001135;23;20026;-74
2022/06/22 00:05:49;;;;;;;5.13;4.93;;;;;;;12.95;82.69;100623.78;5971942;23;20032;-74
2022/06/22 00:08:20;;;;;;;4.82;4.63;;;;;;;13.87;83.61;100777.88;5965303;23;20071;-75
2022/06/22 00:11:02;;;;;;;5.35;5.15;;;;;;;13.83;83.85;100770.25;5971683;23;20042;-74
2022/06/22 00:13:31;;;;;;;5.00;4.80;;;;;;;13.77;84.24;100780.25;5994974;23;20027;-73
2022/06/22 00:16:01;;;;;;;6.20;5.90;;;;;;;13.70;85.41;100772.84;5962686;23;20012;-72
2022/06/22 00:18:31;;;;;;;5.05;4.85;;;;;;;13.23;86.15;100701.06;5976438;23;20514;-74
2022/06/22 00:21:01;;;;;;;6.25;5.95;;;;;;;13.07;86.05;100688.00;5969570;23;20048;-74
2022/06/22 00:23:34;;;;;;;4.70;4.50;;;;;;;13.59;86.21;100781.44;5996174;23;20107;-72
2022/06/22 00:26:08;;;;;;;;;;;;;;;13.56;85.40;100778.97;5974686;23;20022;-73
2022/06/22 00:28:51;;;;;;;4.68;4.47;;;;;;;13.31;85.80;100756.81;5998812;23;19952;-74
2022/06/22 00:31:32;;;;;;;4.90;4.70;;;;;;;13.42;87.27;100792.19;5966224;23;20719;-74
2022/06/22 00:34:02;;;;;;;6.25;5.95;;;;;;;13.41;87.00;100785.22;5988792;23;20035;-74
2022/06/22 00:36:55;;;;;;;4.72;4.53;;;;;;;13.39;87.41;100795.00;5969150;23;20011;-74
2022/06/22 00:39:23;;;;;;;4.60;4.40;;;;;;;13.38;86.77;100794.16;5974825;23;20191;-73
2022/06/22 00:42:14;;;;;;;6.05;5.75;;;;;;;13.33;85.82;100796.22;5960359;23;20087;-73
2022/06/22 00:44:50;;;;;;;4.65;4.45;;;;;;;13.29;86.78;100785.06;6000597;23;20056;-74
2022/06/22 00:47:31;;;;;;;4.70;4.50;;;;;;;13.08;86.87;100760.00;5964938;23;20083;-73
2022/06/22 00:50:14;;;;;;;6.75;6.45;;;;;;;13.24;88.10;100787.09;5995601;23;20027;-74
2022/06/22 00:53:03;;;;;;;4.68;4.45;;;;;;;13.25;87.98;100788.78;5941316;24;20095;-72
2022/06/22 00:55:32;;;;;;;4.70;4.45;;;;;;;12.61;87.49;100664.53;5970539;23;20096;-73
2022/06/22 00:58:13;;;;;;;6.25;5.95;;;;;;;12.64;87.62;100656.44;5993250;23;20015;-73
2022/06/22 01:00:53;;;;;;;4.75;4.55;;;;;;;13.17;88.73;100748.91;5932599;24;20029;-72
2022/06/22 01:03:25;;;;;;;4.75;4.55;;;;;;;12.57;89.66;100692.81;5988588;23;20031;-73
2022/06/22 01:05:56;;;;;;;;;;;;;;;13.04;89.47;100746.16;5969169;23;20120;-73
2022/06/22 01:08:31;;;;;;;4.43;4.22;;;;;;;13.04;89.41;100751.44;5993289;23;20332;-74
2022/06/22 01:11:06;;;;;;;6.72;6.43;;;;;;;12.66;88.63;100688.78;5967859;23;20027;-74
2022/06/22 01:13:41;;;;;;;4.55;4.35;;;;;;;12.88;88.99;100748.03;5965971;23;20031;-72
2022/06/22 01:16:16;;;;;;;4.80;4.60;;;;;;;12.98;88.98;100770.25;5960538;23;20217;-74
2022/06/22 01:18:48;;;;;;;4.60;4.40;;;;;;;12.74;90.45;100733.91;5998626;23;20035;-75
2022/06/22 01:21:32;;;;;;;4.80;4.60;;;;;;;12.63;91.74;100723.22;5965988;23;20036;-73
2022/06/22 01:24:22;;;;;;;5.97;5.68;;;;;;;12.80;91.97;100764.31;5993074;23;20011;-73
2022/06/22 01:27:26;;;;;;;5.65;5.43;;;;;;;12.80;91.52;100759.03;5965004;23;20094;-75
2022/06/22 01:29:56;;;;;;;5.82;5.57;;;;;;;12.64;91.80;100729.31;5999789;23;20110;-74
2022/06/22 01:32:27;;;;;;;4.63;4.43;;;;;;;12.75;92.09;100742.69;5965150;23;20016;-73
2022/06/22 01:34:59;;;;;;;4.60;4.40;;;;;;;12.28;92.23;100664.78;6001267;23;20104;-74
2022/06/22 01:37:29;;;;;;;4.63;4.43;;;;;;;11.99;92.83;100614.75;5945057;24;20019;-73
2022/06/22 01:40:10;;;;;;;4.65;4.45;;;;;;;12.62;92.97;100708.34;5947114;24;20213;-74
2022/06/22 01:42:45;;;;;;;4.40;4.20;;;;;;;12.42;92.90;100682.38;5980664;23;20043;-74
2022/06/22 01:45:43;;;;;;;4.60;4.40;;;;;;;12.53;92.49;100725.53;5967121;23;20016;-73
2022/06/22 01:48:15;;;;;;;4.40;4.20;;;;;;;12.46;93.78;100726.84;5978972;23;20033;-74
2022/06/22 01:50:53;;;;;;;4.60;4.40;;;;;;;12.15;93.98;100685.72;5975269;23;20015;-74
2022/06/22 01:53:36;;;;;;;4.43;4.22;;;;;;;11.65;94.13;100606.19;5966406;23;20015;-73
2022/06/22 01:56:22;;;;;;;;;;;;;;;12.38;94.55;100729.91;5973145;23;20031;-73
2022/06/22 01:59:12;;;;;;;5.13;4.90;;;;;;;12.35;94.52;100724.84;5966074;23;19921;-73
2022/06/22 02:01:49;;;;;;;4.30;4.10;;;;;;;11.59;95.79;100614.44;5993751;23;20107;-73
2022/06/22 02:04:23;;;;;;;4.70;4.50;;;;;;;12.28;95.94;100728.78;5980927;23;20015;-73
2022/06/22 02:10:05;;;;;;;5.90;5.63;;;;;;;12.04;95.92;100703.91;5968267;23;20042;-73
2022/06/22 02:12:37;;;;;;;4.40;4.20;;;;;;;11.62;95.97;100656.28;6005739;23;20057;-74
2022/06/22 02:15:07;;;;;;;;;;;;;;;12.12;96.68;100747.22;5969082;23;20725;-73
2022/06/22 02:17:38;;;;;;;4.70;4.50;;;;;;;11.52;97.04;100661.22;5972766;23;19918;-73
2022/06/22 02:20:27;;;;;;;4.35;4.15;;;;;;;10.81;97.36;100553.19;5985137;23;20028;-73
2022/06/22 02:23:00;;;;;;;5.88;5.60;;;;;;;11.77;97.10;100718.53;5996962;23;20039;-72
2022/06/22 02:25:27;;;;;;;;;;;;;;;12.00;97.78;100752.38;5974506;23;20027;-72
2022/06/22 02:27:54;;;;;;;4.40;4.20;;;;;;;11.83;98.63;100713.88;6005453;23;19914;-73
2022/06/22 02:30:21;;;;;;;4.57;4.38;;;;;;;11.48;99.63;100677.25;5973615;23;20035;-74
2022/06/22 02:32:47;;;;;;;4.90;4.70;;;;;;;11.88;100.00;100730.22;5979582;23;20582;-72
2022/06/22 02:35:15;;;;;;;4.32;4.13;;;;;;;11.83;100.00;100732.28;5972632;23;20023;-73
2022/06/22 02:37:50;;;;;;;4.40;4.20;;;;;;;11.58;99.90;100683.69;6001199;23;20043;-74
2022/06/22 02:40:26;;;;;;;4.60;4.40;;;;;;;11.87;99.75;100742.50;5970451;23;20019;-74
2022/06/22 02:45:43;;;;;;;4.32;4.13;;;;;;;10.95;99.44;100600.53;5985586;23;20144;-74
2022/06/22 02:48:27;;;;;;;4.28;4.07;;;;;;;11.81;99.93;100742.00;5977747;23;20087;-73
2022/06/22 02:51:16;;;;;;;5.80;5.55;;;;;;;11.75;100.00;100725.66;5975209;23;20016;-72
2022/06/22 02:53:44;;;;;;;4.60;4.40;;;;;;;11.56;100.00;100702.16;6002386;23;20025;-74
2022/06/22 02:56:17;;;;;;;4.70;4.50;;;;;;;11.71;100.00;100729.38;5974152;23;20086;-72
2022/06/22 02:58:48;;;;;;;4.45;4.25;;;;;;;11.30;100.00;100658.97;6003579;23;20030;-74
2022/06/22 03:01:20;;;;;;;4.75;4.45;;;;;;;11.64;100.00;100722.75;5982819;23;20347;-71
2022/06/22 03:03:56;;;;;;;4.97;4.78;;;;;;;11.12;100.00;100649.47;5995710;23;20041;-75
2022/06/22 03:06:31;;;;;;;4.90;4.70;;;;;;;11.29;100.00;100659.06;5976384;23;20027;-73
2022/06/22 03:09:02;;;;;;;5.75;5.50;;;;;;;11.57;100.00;100701.25;5996666;23;20501;-73
2022/06/22 03:11:30;;;;;;;4.30;4.10;;;;;;;11.28;100.00;100657.34;5973865;23;20026;-71
2022/06/22 03:14:20;;;;;;;6.20;5.90;;;;;;;11.61;100.00;100703.72;6006415;23;20042;-73
2022/06/22 03:16:56;;;;;;;4.57;4.38;;;;;;;11.09;100.00;100615.53;5969109;23;20039;-74
2022/06/22 03:19:37;;;;;;;4.43;4.22;;;;;;;11.55;100.00;100674.19;5991536;23;20528;-74
2022/06/22 03:22:19;;;;;;;4.95;4.65;;;;;;;11.71;100.00;100683.84;5971583;23;20066;-73
2022/06/22 03:24:54;;;;;;;4.75;4.55;;;;;;;11.42;100.00;100622.44;5976277;23;20019;-74
2022/06/22 03:27:27;;;;;;;4.80;4.40;;;;;;;11.08;100.00;100556.88;5965263;23;20026;-72
2022/06/22 03:29:58;;;;;;;5.93;5.65;;;;;;;11.61;100.00;100664.28;6005738;23;20033;-73
2022/06/22 03:32:30;;;;;;;4.50;4.30;;;;;;;11.72;100.00;100661.88;5919784;24;20677;-75
2022/06/22 03:35:14;;;;;;;6.32;6.03;;;;;;;12.01;100.00;100701.44;5998115;23;20404;-74
2022/06/22 03:37:47;;;;;;;4.70;4.50;;;;;;;11.87;100.00;100666.25;5973059;23;20023;-76
2022/06/22 03:40:22;;;;;;;4.65;4.45;;;;;;;11.74;100.00;100636.34;5986407;23;20049;-74
2022/06/22 03:42:54;;;;;;;5.75;5.47;;;;;;;12.17;100.00;100710.16;5969514;23;20430;-75
2022/06/22 03:45:26;;;;;;;4.60;4.40;;;;;;;11.87;100.00;100639.97;5972539;23;20473;-74
2022/06/22 03:48:01;;;;;;;6.07;5.78;;;;;;;11.30;100.00;100538.09;5972200;23;20032;-73
2022/06/22 03:50:56;;;;;;;4.40;4.20;;;;;;;12.37;99.72;100701.91;5977940;23;20035;-74
2022/06/22 03:53:50;;;;;;;4.70;4.40;;;;;;;12.06;99.44;100649.41;5967396;23;20020;-75
2022/06/22 03:56:22;;;;;;;4.50;4.30;;;;;;;12.57;98.09;100716.53;5999658;23;20023;-73
2022/06/22 03:58:52;;;;;;;5.75;5.50;;;;;;;12.67;97.25;100713.31;5969330;23;20083;-74
2022/06/22 04:01:21;;;;;;;4.60;4.40;;;;;;;12.70;97.00;100716.59;6003045;23;20026;-75
2022/06/22 04:03:50;;;;;;;5.10;4.90;;;;;;;12.41;95.43;100631.53;5966738;23;20027;-75
2022/06/22 04:06:32;;;;;;;4.97;4.78;;;;;;;13.05;95.14;100728.56;6004128;23;20671;-73
2022/06/22 04:09:09;;;;;;;6.85;6.32;;;;;;;12.86;94.36;100681.44;5963440;24;20027;-75
2022/06/22 04:11:44;;;;;;;4.60;4.40;;;;;;;13.35;92.96;100683.66;5996265;23;20046;-74
2022/06/22 04:14:22;;;;;;;4.72;4.53;;;;;;;14.65;86.10;100732.22;5968140;23;20553;-75
2022/06/22 04:16:54;;;;;;;5.43;5.18;;;;;;;15.26;80.98;100715.69;5995079;23;20030;-76
2022/06/22 04:19:30;;;;;;;4.90;4.70;;;;;;;16.00;78.59;100715.63;5969554;23;20043;-74
2022/06/22 04:22:05;;;;;;;6.13;5.82;;;;;;;16.40;74.87;100647.22;5995785;23;20044;-77
2022/06/22 04:25:04;;;;;;;4.80;4.60;;;;;;;17.01;71.06;100654.81;5974676;23;20022;-74
2022/06/22 04:27:35;;;;;;;5.00;4.80;;;;;;;17.79;68.29;100732.53;5999578;23;20031;-75
2022/06/22 04:30:30;;;;;;;5.13;4.93;;;;;;;17.72;69.03;100731.34;5976292;23;20098;-74
2022/06/22 04:33:20;;;;;;;5.03;4.82;;;;;;;17.85;69.50;100723.28;5990193;23;20103;-74
2022/06/22 04:35:58;;;;;;;5.15;4.95;;;;;;;17.86;67.56;100691.28;5950511;24;20028;-77
2022/06/22 04:38:36;;;;;;;6.10;5.57;;;;;;;17.69;64.49;100699.75;5979733;23;20035;-77
2022/06/22 04:41:14;;;;;;;5.47;5.00;;;;;;;17.55;66.94;100728.25;5978618;23;20604;-76
2022/06/22 04:43:41;;;;;;;5.10;4.90;;;;;;;16.88;69.41;100707.16;5998176;23;20007;-73
2022/06/22 04:46:11;;;;;;;5.38;5.10;;;;;;;16.57;70.09;100712.13;5971615;23;20019;-74
2022/06/22 04:48:47;;;;;;;5.10;4.90;;;;;;;16.66;70.73;100732.63;5955188;24;20060;-75
2022/06/22 04:51:20;;;;;;;5.22;4.93;;;;;;;17.60;69.54;100729.69;5970528;23;20031;-74
2022/06/22 04:53:55;;;;;;;5.25;5.05;;;;;;;17.81;65.39;100666.91;5940694;24;20028;-75
2022/06/22 04:56:30;;;;;;;5.60;5.30;;;;;;;18.85;63.08;100683.78;5969867;23;20047;-75
2022/06/22 04:58:58;;;;;;;6.72;6.43;;;;;;;20.37;60.09;100737.69;5994998;23;20019;-78
2022/06/22 05:01:28;;;;;;;5.53;5.28;;;;;;;21.11;56.45;100735.06;5974126;23;20024;-74
2022/06/22 05:03:58;;;;;;;7.00;6.70;;;;;;;21.60;54.86;100742.00;5992419;23;20106;-74
2022/06/22 05:06:33;;;;;;;5.80;5.50;;;;;;;22.01;53.79;100750.41;5966114;23;20120;-75
2022/06/22 05:09:05;;;;;;;6.53;6.22;;;;;;;21.51;52.75;100751.78;5991639;23;20026;-76
2022/06/22 05:11:43;;;;;;;5.85;5.55;;;;;;;21.41;53.40;100718.88;5974717;23;20012;-75
2022/06/22 05:14:39;;;;;;;5.78;5.47;;;;;;;20.35;55.11;100751.13;5993016;23;20015;-73
2022/06/22 05:17:19;;;;;;;5.50;5.30;;;;;;;19.88;58.17;100716.38;5954612;23;20064;-74
2022/06/22 05:20:12;;;;;;;5.82;5.53;;;;;;;20.15;57.46;100709.50;5997209;23;20015;-74
2022/06/22 05:22:38;;;;;;;5.57;5.32;;;;;;;20.33;58.12;100711.28;5961917;23;20016;-73
2022/06/22 05:25:09;;;;;;;5.95;5.65;;;;;;;20.76;57.37;100714.44;5936657;24;20359;-73
2022/06/22 05:27:50;;;;;;;6.00;5.70;;;;;;;21.77;55.03;100746.53;5970278;23;20016;-73
2022/06/22 05:30:17;;;;;;;6.00;5.70;;;;;;;21.27;54.08;100649.03;5996015;23;20495;-74
2022/06/22 05:32:49;;;;;;;5.40;5.20;;;;;;;20.72;55.37;100649.03;5967990;23;20099;-74
2022/06/22 05:35:21;;;;;;;5.30;5.10;;;;;;;20.98;56.99;100739.91;5961507;23;20035;-72
2022/06/22 05:37:52;;;;;;;6.47;6.18;;;;;;;20.02;59.44;100715.13;5967202;23;20515;-73
2022/06/22 05:40:23;;;;;;;6.88;6.57;;;;;;;21.01;57.28;100699.59;5998287;23;20343;-73
2022/06/22 05:42:51;;;;;;;6.38;6.07;;;;;;;22.09;55.34;100748.66;5962793;23;20164;-73
2022/06/22 05:45:21;;;;;;;5.85;5.55;;;;;;;22.16;52.94;100708.78;5999965;23;20016;-73
2022/06/22 05:47:48;;;;;;;5.70;5.45;;;;;;;22.59;51.13;100693.75;5970670;23;20080;-75
2022/06/22 05:50:30;;;;;;;6.13;5.72;;;;;;;23.15;48.88;100752.22;5982452;23;20019;-74
2022/06/22 05:53:05;;;;;;;6.88;6.57;;;;;;;21.84;48.63;100639.88;5972306;23;20011;-74
2022/06/22 05:55:44;;;;;;;5.80;5.50;;;;;;;22.78;49.26;100764.91;5979412;23;20413;-73
2022/06/22 05:58:28;;;;;;;6.03;5.72;;;;;;;21.57;50.46;100663.03;5960232;23;20011;-74
2022/06/22 06:00:58;;;;;;;6.30;6.00;;;;;;;22.58;51.00;100766.09;6000950;23;20031;-73
2022/06/22 06:03:30;;;;;;;5.85;5.55;;;;;;;22.81;49.54;100769.09;5970507;23;20642;-74
2022/06/22 06:06:20;;;;;;;;;;;;;;;23.01;49.12;100759.84;5972935;23;20027;-74
2022/06/22 06:08:51;;;;;;;5.78;5.47;;;;;;;23.57;47.46;100765.59;5965817;23;20072;-75
2022/06/22 06:11:30;;;;;;;6.10;5.80;;;;;;;23.42;47.56;100759.22;5960877;23;20019;-73
2022/06/22 06:14:02;;;;;;;6.88;6.47;;;;;;;22.09;48.48;100734.44;5969189;23;20619;-74
2022/06/22 06:16:45;;;;;;;5.60;5.40;;;;;;;22.88;48.83;100759.44;6002085;23;20019;-74
2022/06/22 06:19:17;;;;;;;7.03;6.63;;;;;;;22.70;48.44;100743.44;5966027;23;20079;-74
2022/06/22 06:21:45;;;;;;;6.15;5.78;;;;;;;21.64;50.68;100719.34;5938390;24;20032;-75
2022/06/22 06:24:18;;;;;;;6.75;6.35;;;;;;;21.95;51.09;100746.53;5975974;23;20129;-75
2022/06/22 06:29:42;;;;;;;5.93;5.63;;;;;;;21.49;50.98;100756.41;5965935;23;20095;-74
2022/06/22 06:32:18;;;;;;;;;;;;;;;21.05;50.48;100756.19;5915892;24;20027;-75
2022/06/22 06:34:53;;;;;;;5.82;5.53;;;;;;;20.66;51.50;100676.28;5940014;23;19914;-75
2022/06/22 06:37:44;;;;;;;5.93;5.63;;;;;;;21.21;50.56;100759.06;5970324;23;20028;-75
2022/06/22 06:40:15;;;;;;;6.50;6.20;;;;;;;19.92;50.80;100624.56;5961619;23;20024;-74
2022/06/22 06:42:50;;;;;;;5.87;5.57;;;;;;;19.82;54.27;100680.50;5983686;23;20023;-76
2022/06/22 06:45:21;;;;;;;5.80;5.50;;;;;;;20.19;55.00;100701.09;5976202;23;20012;-74
2022/06/22 06:47:52;;;;;;;6.18;5.88;;;;;;;20.02;53.32;100622.72;5986659;23;20050;-74
2022/06/22 06:50:27;;;;;;;6.20;5.90;;;;;;;20.02;54.57;100709.78;5964628;23;20016;-73
2022/06/22 06:53:16;;;;;;;6.90;6.60;;;;;;;20.44;54.81;100749.44;5993363;23;20461;-74
2022/06/22 06:56:04;;;;;;;6.40;6.10;;;;;;;20.19;54.95;100695.75;5964891;23;20079;-75
2022/06/22 06:58:48;;;;;;;6.00;5.70;;;;;;;19.30;55.68;100549.47;5990473;23;20117;-75
2022/06/22 07:01:21;;;;;;;6.03;5.72;;;;;;;19.75;54.50;100667.91;5933861;24;20016;-73
2022/06/22 07:03:53;;;;;;;6.50;6.15;;;;;;;19.77;54.58;100655.28;5984876;23;20484;-74
2022/06/22 07:06:20;;;;;;;5.70;5.47;;;;;;;20.06;55.36;100705.84;5967679;23;20026;-74
2022/06/22 07:09:01;;;;;;;7.00;6.70;;;;;;;20.14;53.97;100703.31;5910736;24;20095;-74
2022/06/22 07:11:40;;;;;;;5.70;5.40;;;;;;;20.42;52.89;100676.75;5967175;23;20099;-74
2022/06/22 07:14:15;;;;;;;5.40;5.18;;;;;;;21.08;50.79;100751.38;5913540;24;20016;-76
2022/06/22 07:16:42;;;;;;;5.47;5.20;;;;;;;20.60;52.69;100695.53;5990687;23;20033;-75
2022/06/22 07:19:50;;;;;;;5.72;5.43;;;;;;;20.96;50.79;100757.06;5959744;23;20011;-74
2022/06/22 07:22:32;;;;;;;5.85;5.55;;;;;;;20.63;51.20;100693.44;5971329;23;20037;-74
2022/06/22 07:25:06;;;;;;;6.65;6.35;;;;;;;21.43;50.38;100743.63;5939944;24;20028;-76
2022/06/22 07:27:52;;;;;;;6.30;5.82;;;;;;;21.64;51.21;100738.03;5990481;23;20011;-75
2022/06/22 07:30:21;;;;;;;5.35;5.15;;;;;;;21.70;49.65;100740.94;5971009;23;20038;-75
2022/06/22 07:32:57;;;;;;;6.63;6.25;;;;;;;21.26;49.83;100713.22;5987452;23;20078;-74
2022/06/22 07:35:35;;;;;;;5.88;5.57;;;;;;;21.70;49.12;100766.81;5941231;24;20590;-75
2022/06/22 07:38:26;;;;;;;5.75;5.45;;;;;;;21.41;50.71;100692.19;5990780;23;20053;-75
2022/06/22 07:43:38;;;;;;;5.40;5.20;;;;;;;21.70;50.61;100729.41;5981512;23;20035;-77
2022/06/22 07:46:06;;;;;;;6.40;6.10;;;;;;;21.98;49.37;100732.84;5938849;23;20022;-74
2022/06/22 07:48:39;;;;;;;5.90;5.60;;;;;;;21.99;48.33;100712.31;5948956;24;20015;-73
2022/06/22 07:51:08;;;;;;;5.93;5.63;;;;;;;22.40;48.54;100758.13;5963604;23;20106;-74
2022/06/22 07:54:00;;;;;;;5.88;5.57;;;;;;;22.44;47.01;100754.13;5993056;23;20019;-73
2022/06/22 07:56:52;;;;;;;5.75;5.45;;;;;;;21.96;47.51;100659.19;5959257;23;20590;-73
2022/06/22 07:59:26;;;;;;;5.68;5.38;;;;;;;22.74;48.53;100760.03;5986934;23;20014;-74
2022/06/22 08:01:58;;;;;;;6.55;6.25;;;;;;;22.90;47.89;100754.75;5965575;23;20031;-74
2022/06/22 08:04:33;;;;;;;5.97;5.68;;;;;;;23.02;46.21;100753.50;5934310;24;20259;-74
2022/06/22 08:07:17;;;;;;;7.13;6.80;;;;;;;23.13;46.63;100756.91;5960512;23;20386;-73
2022/06/22 08:09:46;;;;;;;5.85;5.50;;;;;;;23.15;46.78;100752.22;5993334;23;20358;-75
2022/06/22 08:12:25;;;;;;;5.53;5.32;;;;;;;23.09;44.10;100762.59;5959564;23;20078;-73
2022/06/22 08:14:53;;;;;;;6.88;6.57;;;;;;;22.92;45.88;100758.13;5989032;23;20013;-75
2022/06/22 08:17:35;;;;;;;6.30;6.00;;;;;;;22.84;45.81;100755.41;5968589;23;20496;-75
2022/06/22 08:20:03;;;;;;;7.90;7.07;;;;;;;22.73;45.06;100752.97;5991159;23;20599;-74
2022/06/22 08:22:30;;;;;;;5.50;5.20;;;;;;;22.53;45.55;100694.34;5943908;24;20022;-76
2022/06/22 08:24:59;;;;;;;6.53;6.22;;;;;;;22.61;46.43;100659.66;5970847;23;20094;-76
2022/06/22 08:27:27;;;;;;;5.97;5.65;;;;;;;22.78;45.43;100679.28;5965490;23;20098;-74
2022/06/22 08:29:54;;;;;;;6.82;6.45;;;;;;;21.66;45.51;100554.44;6003852;23;20385;-75
2022/06/22 08:32:47;;;;;;;5.80;5.50;;;;;;;22.93;47.07;100733.03;5965151;23;20727;-75
2022/06/22 08:35:21;;;;;;;5.60;5.30;;;;;;;23.29;44.61;100724.84;5919315;24;20014;-74
2022/06/22 08:37:53;;;;;;;5.80;5.53;;;;;;;23.73;44.93;100746.03;5962824;23;20450;-75
2022/06/22 08:40:39;;;;;;;6.03;5.72;;;;;;;23.47;44.50;100719.38;5973553;23;20012;-74
2022/06/22 08:43:14;;;;;;;6.35;6.05;;;;;;;23.64;44.09;100736.31;5966542;23;20537;-76
2022/06/22 08:46:26;;;;;;;5.50;5.20;;;;;;;24.06;44.40;100744.28;5988519;23;20468;-75
2022/06/22 08:49:21;;;;;;;6.63;6.32;;;;;;;23.84;44.13;100739.56;5940332;24;20027;-75
2022/06/22 08:52:09;;;;;;;6.53;5.93;;;;;;;24.22;45.44;100727.34;5999625;23;20027;-76
2022/06/22 08:55:05;;;;;;;5.65;5.45;;;;;;;24.44;42.83;100738.41;5973463;23;20036;-73
2022/06/22 08:57:55;;;;;;;5.90;5.60;;;;;;;24.33;41.99;100738.72;5933056;23;20020;-74
2022/06/22 09:00:55;;;;;;;5.90;5.60;;;;;;;24.44;43.95;100738.41;5968178;23;20023;-72
2022/06/22 09:03:35;;;;;;;6.05;5.70;;;;;;;24.38;42.60;100739.91;5984493;23;20272;-73
2022/06/22 09:06:02;;;;;;;6.90;6.50;;;;;;;24.45;42.12;100734.69;5963432;23;20600;-73
2022/06/22 09:09:01;;;;;;;6.00;5.70;;;;;;;24.07;43.25;100742.44;5942059;24;20024;-74
2022/06/22 09:11:34;;;;;;;5.90;5.60;;;;;;;24.05;41.52;100690.81;5949591;23;20270;-74
2022/06/22 09:14:12;;;;;;;6.85;6.50;;;;;;;24.52;42.33;100724.16;5999669;23;20064;-74
2022/06/22 09:17:09;;;;;;;5.45;5.15;;;;;;;24.65;41.62;100741.38;5978162;23;20469;-75
2022/06/22 09:19:38;;;;;;;5.60;5.30;;;;;;;24.54;41.75;100739.09;5995227;23;20046;-75
2022/06/22 09:22:19;;;;;;;6.00;5.70;;;;;;;24.86;42.35;100734.66;5965368;23;20362;-74
2022/06/22 09:24:58;;;;;;;6.03;5.72;;;;;;;24.43;41.64;100681.19;5976171;23;20043;-75
2022/06/22 09:28:04;;;;;;;5.57;5.32;;;;;;;24.83;41.27;100743.03;5973666;23;20433;-73
2022/06/22 09:30:38;;;;;;;5.80;5.50;;;;;;;24.87;39.45;100747.03;5976432;23;20467;-74
2022/06/22 09:33:26;;;;;;;6.43;6.13;;;;;;;24.76;39.45;100747.44;5920550;24;20032;-74
2022/06/22 09:36:14;;;;;;;6.57;6.28;;;;;;;24.76;40.77;100740.22;5990696;23;20047;-73
2022/06/22 09:38:55;;;;;;;5.72;5.43;;;;;;;24.04;39.85;100654.31;5968121;23;20040;-75
2022/06/22 09:41:49;;;;;;;5.63;5.32;;;;;;;24.96;40.34;100696.88;5946844;24;20260;-74
2022/06/22 09:44:46;;;;;;;6.82;6.53;;;;;;;24.60;40.54;100655.22;5952418;24;20046;-74
2022/06/22 09:47:37;;;;;;;5.95;5.60;;;;;;;25.13;40.81;100727.16;5987014;23;20091;-75
2022/06/22 09:50:28;;;;;;;6.70;6.30;;;;;;;25.15;39.76;100641.88;5980993;23;20970;-72
2022/06/22 09:53:21;;;;;;;7.03;6.68;;;;;;;25.40;38.51;100729.41;5993437;23;20050;-75
2022/06/22 09:56:27;;;;;;;5.72;5.43;;;;;;;25.61;38.55;100719.88;5964972;23;20102;-74
2022/06/22 09:59:12;;;;;;;6.53;6.22;;;;;;;25.52;37.81;100710.16;5997134;23;20472;-75
2022/06/22 10:01:55;;;;;;;5.60;5.30;;;;;;;24.91;37.72;100664.31;5968775;23;20035;-75
2022/06/22 10:04:33;;;;;;;5.90;5.60;;;;;;;25.24;38.46;100708.00;5992040;23;20168;-76
2022/06/22 10:07:21;;;;;;;7.13;6.75;;;;;;;25.34;37.75;100711.31;5937358;24;20020;-74
2022/06/22 10:10:13;;;;;;;5.95;5.65;;;;;;;25.39;36.82;100692.78;5969888;23;20024;-74
2022/06/22 10:13:05;;;;;;;5.80;5.50;;;;;;;25.33;34.21;100731.09;5969489;23;20542;-75
2022/06/22 10:16:10;;;;;;;5.80;5.50;;;;;;;24.59;36.09;100582.94;5991619;23;20026;-73
2022/06/22 10:18:52;;;;;;;5.97;5.68;;;;;;;25.72;36.48;100713.22;5928889;23;20019;-73
2022/06/22 10:21:35;;;;;;;5.90;5.60;;;;;;;25.88;35.66;100708.59;5980206;23;20023;-75
2022/06/22 10:24:35;;;;;;;6.93;6.60;;;;;;;26.11;35.35;100698.84;5974076;23;20057;-73
2022/06/22 10:27:40;;;;;;;7.28;6.88;;;;;;;26.02;33.63;100708.81;5992337;23;20007;-73
2022/06/22 10:30:15;;;;;;;15.38;14.63;;;;;;;25.99;34.35;100663.50;5767070;24;20397;-75
2022/06/22 10:33:27;;;;;;;5.50;5.25;;;;;;;26.01;35.77;100613.88;5992395;23;20023;-73
2022/06/22 10:35:58;;;;;;;6.93;6.63;;;;;;;26.56;35.07;100683.59;5939342;23;20107;-74
2022/06/22 10:38:43;;;;;;;5.80;5.50;;;;;;;26.72;36.04;100704.13;5979623;23;20052;-74
2022/06/22 10:45:08;;;;;;;5.63;5.43;;;;;;;26.42;35.23;100679.88;5953936;23;20370;-73
2022/06/22 10:47:59;;;;;;;5.53;5.30;;;;;;;26.63;35.33;100688.06;5945014;24;20036;-74
2022/06/22 10:51:00;;;;;;;5.88;5.57;;;;;;;27.03;36.20;100677.00;5972001;23;20024;-75
2022/06/22 10:53:52;;;;;;;5.70;5.40;;;;;;;27.24;36.13;100676.22;5939715;24;20173;-74
2022/06/22 10:56:21;;;;;;;5.55;5.30;;;;;;;26.95;37.07;100674.41;5968255;23;20022;-75
2022/06/22 10:59:12;;;;;;;5.88;5.60;;;;;;;26.41;35.86;100695.19;5985215;23;20106;-76
2022/06/22 11:02:13;;;;;;;5.60;5.30;;;;;;;26.34;36.60;100685.34;5970846;23;20036;-75
2022/06/22 11:05:00;;;;;;;5.53;5.32;;;;;;;26.71;37.21;100680.94;5989596;23;20084;-74
2022/06/22 11:07:26;;;;;;;5.45;5.20;;;;;;;27.08;35.75;100681.81;5927479;24;20274;-74
2022/06/22 11:10:02;;;;;;;7.20;6.80;;;;;;;26.98;35.69;100656.03;5967866;23;20022;-75
2022/06/22 11:12:58;;;;;;;6.10;5.50;;;;;;;25.80;36.92;100566.16;5999736;23;20023;-75
2022/06/22 11:15:53;;;;;;;5.70;5.40;;;;;;;25.84;36.03;100580.09;5954105;23;20087;-74
2022/06/22 11:19:06;;;;;;;5.70;5.40;;;;;;;26.73;36.53;100679.72;5990696;23;20389;-75
2022/06/22 11:21:44;;;;;;;5.60;5.30;;;;;;;26.58;35.65;100695.03;5947195;24;20091;-75
2022/06/22 11:24:46;;;;;;;5.82;5.53;;;;;;;26.42;36.04;100672.66;6002040;23;20066;-75
2022/06/22 11:33:29;;;;;;;6.00;5.70;;;;;;;27.03;35.52;100656.28;5938003;24;20335;-75
2022/06/22 11:36:00;;;;;;;6.57;6.28;;;;;;;26.71;34.95;100689.03;5982867;23;20039;-74
2022/06/22 11:38:54;;;;;;;5.80;5.50;;;;;;;26.90;36.72;100685.72;5951014;23;20078;-73
2022/06/22 11:41:54;;;;;;;5.90;5.60;;;;;;;27.46;35.48;100693.25;5977285;23;20045;-74
2022/06/22 11:44:42;;;;;;;5.65;5.38;;;;;;;27.74;34.91;100698.72;5943541;24;20020;-73
2022/06/22 11:47:34;;;;;;;6.03;5.72;;;;;;;27.61;35.04;100597.00;5976408;23;20032;-74
2022/06/22 11:50:17;;;;;;;6.80;6.50;;;;;;;27.94;33.97;100652.25;5958426;23;20032;-75
2022/06/22 11:52:59;;;;;;;5.68;5.38;;;;;;;28.51;35.19;100705.22;5937202;24;20524;-76
2022/06/22 11:55:31;;;;;;;5.73;5.43;;;;;;;27.63;32.83;100693.88;5967745;23;20028;-76
2022/06/22 11:58:17;;;;;;;7.00;6.65;;;;;;;27.74;33.06;100692.50;5937184;24;20028;-75
2022/06/22 12:01:13;;;;;;;5.90;5.60;;;;;;;28.18;33.44;100691.47;5964389;23;20036;-76
2022/06/22 12:04:05;;;;;;;6.00;5.70;;;;;;;27.99;33.45;100698.38;5977749;23;20082;-77
2022/06/22 12:07:12;;;;;;;5.68;5.38;;;;;;;27.95;33.54;100692.53;5962852;23;20326;-74
2022/06/22 12:09:57;;;;;;;5.70;5.40;;;;;;;27.69;34.10;100693.09;5915276;24;20035;-76
2022/06/22 12:12:51;;;;;;;10.95;6.22;;;;;;;27.52;34.75;100681.72;5996061;23;20035;-74
2022/06/22 12:15:32;;;;;;;5.70;5.40;;;;;;;27.42;35.06;100682.06;5959140;23;20087;-74
2022/06/22 12:18:15;;;;;;;6.43;6.10;;;;;;;27.19;34.69;100681.34;5994821;23;20042;-75
2022/06/22 12:20:55;;;;;;;;;;;;;;;27.17;34.93;100680.69;5972652;23;20032;-74
2022/06/22 12:23:22;;;;;;;5.90;5.60;;;;;;;27.18;34.54;100679.66;5941799;24;19926;-76
2022/06/22 12:26:12;;;;;;;5.80;5.50;;;;;;;27.30;34.82;100678.16;5976526;23;20334;-75
2022/06/22 12:28:45;;;;;;;5.80;5.50;;;;;;;27.61;35.00;100669.78;5987088;23;20024;-72
2022/06/22 12:31:23;;;;;;;5.68;5.38;;;;;;;27.51;33.53;100612.66;5943747;23;20024;-75
2022/06/22 12:33:58;;;;;;;5.90;5.50;;;;;;;27.95;34.50;100614.31;5996834;23;20026;-74
2022/06/22 12:36:47;;;;;;;5.85;5.55;;;;;;;28.23;33.01;100660.16;5951729;23;20469;-75
2022/06/22 12:39:24;;;;;;;5.45;5.22;;;;;;;27.70;33.03;100586.88;5991641;23;20034;-76
2022/06/22 12:42:10;;;;;;;6.38;6.07;;;;;;;28.04;32.55;100659.00;5971845;23;20365;-74
2022/06/22 12:44:46;;;;;;;6.10;5.80;;;;;;;28.17;33.06;100658.25;5932582;24;20710;-74